Portada
METAR-TAF:

METAR-TAF

Aeroports :

Rantoul National Aviation Center Airport (Frank Elliott Field)

Rantoul, Illinois, Estats Units d'Amèrica

latitud: 40-17-37N, longitud: 088-08-33W, altitud: 225 m

Observació

L'informe es va fer fa 19 minuts, a les 13:15 UTC
Vent 4 kt del Sud-Est
Temperatura 1°C
Humitat 93%
Pressió 1007 hPa
Visibilitat: 6.4 km
Núvols disperses a una alçada de 6000 ft
Cel cobert a una alçada de 8000 ft
boirina

METAR: KTIP 191315Z AUTO 14004KT 4SM BR SCT060 OVC080 01/00 A2974 RMK AO2 T00050003

Hora: 07:34 (13:34 UTC)


TAF: manca

Observacions i pronòstics meteorològics de més de 4000 aeroports (METAR i TAF).

Les estacions disponibles són els punts grocs i vermells al mapa.

Posi el ratolí al punt desitjat per veure el nom de l'estació.

Feu clic per veure les observacions i els pronòstics meteorològics.

Per canviar el mapa: feu clic els botons verds amb una creu de color negre per apropar; al botó verd amb un guió per allunyar la imatge; o en les fletxes verdes per a mapes adjacents.


METAR-TAF: